Time;durP1;ratioP1;P1;durP2;ratioP2;P2;SDS_P1;SDS_P2;PMS_P1;PMS_P2;Temp;Humidity;BMP_temperature;BMP_pressure;BME280_temperature;BME280_humidity;BME280_pressure;Samples;Min_cycle;Max_cycle;Signal;HPM_P1;HPM_P2
2022/01/01 00:01:16;;;;;;;11.00;5.55;;;12.70;96.00;;;;;;4953970;28;20096;-65
2022/01/01 00:03:41;;;;;;;10.55;6.82;;;12.70;96.00;;;;;;4953837;28;20050;-65
2022/01/01 00:06:07;;;;;;;11.10;6.03;;;12.70;96.00;;;;;;4954049;28;20391;-65
2022/01/01 00:08:32;;;;;;;13.52;6.53;;;12.60;95.90;;;;;;4950695;28;20031;-65
2022/01/01 00:10:58;;;;;;;11.52;6.20;;;12.60;96.00;;;;;;4953935;28;20035;-65
2022/01/01 00:13:24;;;;;;;11.55;6.63;;;12.60;96.20;;;;;;4954255;28;20027;-65
2022/01/01 00:15:49;;;;;;;8.75;5.90;;;12.60;96.20;;;;;;4953736;28;20102;-65
2022/01/01 00:18:16;;;;;;;12.65;6.30;;;12.60;96.50;;;;;;4953815;28;20059;-66
2022/01/01 00:20:42;;;;;;;8.30;5.90;;;12.60;96.00;;;;;;4960560;28;20057;-66
2022/01/01 00:23:08;;;;;;;9.73;6.03;;;12.60;96.20;;;;;;4951468;28;20236;-65
2022/01/01 00:25:34;;;;;;;12.85;7.20;;;12.50;95.80;;;;;;4955232;28;20066;-65
2022/01/01 00:27:59;;;;;;;16.42;7.35;;;12.40;95.90;;;;;;4953301;28;20444;-65
2022/01/01 00:30:25;;;;;;;12.40;7.45;;;12.40;96.10;;;;;;4956253;28;20461;-65
2022/01/01 00:32:50;;;;;;;18.27;8.35;;;12.30;96.10;;;;;;4952570;28;20110;-65
2022/01/01 00:35:16;;;;;;;14.30;8.07;;;12.30;96.30;;;;;;4950288;28;20114;-65
2022/01/01 00:37:42;;;;;;;19.25;8.65;;;12.20;96.30;;;;;;4954768;28;20023;-65
2022/01/01 00:40:08;;;;;;;14.30;8.38;;;12.20;96.40;;;;;;4951306;28;20028;-65
2022/01/01 00:42:33;;;;;;;12.70;7.57;;;12.20;96.40;;;;;;4946483;28;20035;-65
2022/01/01 00:44:59;;;;;;;13.00;7.88;;;12.30;96.50;;;;;;4953361;28;20023;-64
2022/01/01 00:47:25;;;;;;;13.30;7.75;;;12.20;96.30;;;;;;4949326;28;20032;-65
2022/01/01 00:49:50;;;;;;;12.00;7.57;;;12.30;96.40;;;;;;4955230;28;20484;-65
2022/01/01 00:52:16;;;;;;;14.93;7.57;;;12.30;96.40;;;;;;4953186;28;20180;-66
2022/01/01 00:54:42;;;;;;;15.60;7.53;;;12.30;96.30;;;;;;4953037;28;20027;-66
2022/01/01 00:57:08;;;;;;;9.70;7.25;;;12.20;96.20;;;;;;4952833;28;20027;-66
2022/01/01 00:59:34;;;;;;;12.25;7.35;;;12.20;96.30;;;;;;4950009;28;20034;-65
2022/01/01 01:01:59;;;;;;;10.57;7.10;;;12.20;96.30;;;;;;4953167;28;20484;-66
2022/01/01 01:04:26;;;;;;;10.82;7.35;;;12.10;96.50;;;;;;4953849;28;20039;-66
2022/01/01 01:06:52;;;;;;;10.18;6.38;;;12.20;96.40;;;;;;4953281;28;20024;-65
2022/01/01 01:09:18;;;;;;;10.55;6.90;;;12.20;96.30;;;;;;4953184;28;20057;-65
2022/01/01 01:11:47;;;;;;;10.90;7.10;;;12.10;96.20;;;;;;4950638;28;20047;-65
2022/01/01 01:14:20;;;;;;;10.48;6.45;;;12.10;96.30;;;;;;4949205;28;20392;-66
2022/01/01 01:16:47;;;;;;;9.52;6.82;;;12.00;96.40;;;;;;4955092;28;20106;-65
2022/01/01 01:19:16;;;;;;;8.70;6.35;;;12.00;96.40;;;;;;4956358;28;20057;-65
2022/01/01 01:21:44;;;;;;;10.15;6.10;;;12.00;96.50;;;;;;4957889;28;20431;-65
2022/01/01 01:24:11;;;;;;;9.48;6.45;;;12.10;96.50;;;;;;4952492;28;20023;-66
2022/01/01 01:26:36;;;;;;;9.73;6.72;;;12.00;96.30;;;;;;4950365;28;20051;-66
2022/01/01 01:29:04;;;;;;;9.10;6.28;;;12.00;96.40;;;;;;4952539;28;20066;-66
2022/01/01 01:31:30;;;;;;;10.60;6.22;;;12.00;96.40;;;;;;4952877;28;20388;-65
2022/01/01 01:33:56;;;;;;;9.43;6.47;;;12.00;96.50;;;;;;4952831;28;20035;-65
2022/01/01 01:36:22;;;;;;;10.10;6.18;;;12.00;96.40;;;;;;4952641;28;20495;-65
2022/01/01 01:38:48;;;;;;;8.90;5.72;;;12.00;96.30;;;;;;4951076;28;20398;-66
2022/01/01 01:41:13;;;;;;;11.43;6.38;;;12.00;96.30;;;;;;4949679;28;20027;-66
2022/01/01 01:43:42;;;;;;;8.98;5.70;;;11.90;96.30;;;;;;4954608;28;20131;-65
2022/01/01 01:46:12;;;;;;;9.23;5.68;;;12.00;96.50;;;;;;4952597;28;20027;-65
2022/01/01 01:48:38;;;;;;;10.73;6.03;;;12.00;96.40;;;;;;4952642;28;20046;-65
2022/01/01 01:51:04;;;;;;;8.45;5.88;;;12.00;96.30;;;;;;4955571;28;20042;-64
2022/01/01 01:53:32;;;;;;;10.80;6.30;;;11.90;96.20;;;;;;4951997;28;20499;-64
2022/01/01 01:55:59;;;;;;;8.55;5.15;;;11.90;96.00;;;;;;4956449;28;20407;-64
2022/01/01 01:58:25;;;;;;;11.48;6.20;;;11.90;96.20;;;;;;4955010;28;20019;-64
2022/01/01 02:03:17;;;;;;;10.18;5.72;;;11.90;96.30;;;;;;4955600;28;20039;-64
2022/01/01 02:05:45;;;;;;;8.27;5.22;;;12.00;96.30;;;;;;4953755;28;20035;-64
2022/01/01 02:08:12;;;;;;;8.75;5.18;;;11.90;96.10;;;;;;4952822;28;20051;-64
2022/01/01 02:10:39;;;;;;;8.25;5.65;;;12.00;96.20;;;;;;4956079;28;20047;-64
2022/01/01 02:13:11;;;;;;;9.52;5.15;;;11.90;95.80;;;;;;4955715;28;20031;-64
2022/01/01 02:16:00;;;;;;;7.68;5.28;;;11.90;95.90;;;;;;4955655;28;20377;-64
2022/01/01 02:18:25;;;;;;;7.90;4.78;;;11.90;95.80;;;;;;4952817;28;20055;-64
2022/01/01 02:20:51;;;;;;;7.60;5.10;;;11.80;95.80;;;;;;4955351;28;20069;-64
2022/01/01 02:23:18;;;;;;;10.25;5.15;;;11.80;95.80;;;;;;4965405;28;20041;-65
2022/01/01 02:25:44;;;;;;;8.30;5.97;;;11.70;95.90;;;;;;4957391;28;20031;-64
2022/01/01 02:28:12;;;;;;;9.13;5.30;;;11.70;95.90;;;;;;4955383;28;20031;-64
2022/01/01 02:30:38;;;;;;;8.35;5.40;;;11.70;95.70;;;;;;4955451;28;20081;-65
2022/01/01 02:33:03;;;;;;;7.07;5.20;;;11.70;95.80;;;;;;4955304;28;20030;-65
2022/01/01 02:35:29;;;;;;;7.38;4.57;;;11.70;95.90;;;;;;4951594;28;20071;-65
2022/01/01 02:37:55;;;;;;;8.32;5.05;;;11.60;95.60;;;;;;4956529;28;20558;-64
2022/01/01 02:40:20;;;;;;;7.88;5.47;;;11.60;95.70;;;;;;4952682;28;20027;-65
2022/01/01 02:42:46;;;;;;;7.22;4.80;;;11.60;95.70;;;;;;4955311;28;20182;-64
2022/01/01 02:45:14;;;;;;;7.43;4.90;;;11.60;95.70;;;;;;4955274;28;20066;-64
2022/01/01 02:47:41;;;;;;;7.75;4.70;;;11.60;95.70;;;;;;4952700;28;20507;-64
2022/01/01 02:50:07;;;;;;;7.63;4.90;;;11.50;95.70;;;;;;4953672;28;20046;-64
2022/01/01 02:52:33;;;;;;;7.82;4.80;;;11.50;95.60;;;;;;4956196;28;20045;-64
2022/01/01 02:54:59;;;;;;;6.95;5.20;;;11.50;95.60;;;;;;4954840;28;20035;-64
2022/01/01 02:57:25;;;;;;;6.43;4.63;;;11.40;95.40;;;;;;4955139;28;20027;-64
2022/01/01 02:59:50;;;;;;;7.95;4.85;;;11.40;95.70;;;;;;4953243;28;20449;-65
2022/01/01 03:02:16;;;;;;;7.90;5.05;;;11.50;95.60;;;;;;4951573;28;20067;-65
2022/01/01 03:04:42;;;;;;;7.00;4.78;;;11.50;95.70;;;;;;4956597;28;20065;-65
2022/01/01 03:07:07;;;;;;;6.07;5.00;;;11.50;95.50;;;;;;4954543;28;20028;-65
2022/01/01 03:09:36;;;;;;;8.50;4.82;;;11.50;95.60;;;;;;4951900;28;20568;-65
2022/01/01 03:12:06;;;;;;;7.45;4.88;;;11.50;95.60;;;;;;4954569;28;20050;-65
2022/01/01 03:14:32;;;;;;;8.43;4.93;;;11.50;95.40;;;;;;4950989;28;20467;-65
2022/01/01 03:16:58;;;;;;;7.97;4.78;;;11.40;95.30;;;;;;4954051;28;20080;-65
2022/01/01 03:19:23;;;;;;;6.93;4.68;;;11.50;95.60;;;;;;4958513;28;20035;-65
2022/01/01 03:21:49;;;;;;;7.68;4.53;;;11.40;95.30;;;;;;4958199;28;20028;-65
2022/01/01 03:24:15;;;;;;;5.53;4.43;;;11.40;95.30;;;;;;4954436;28;20045;-65
2022/01/01 03:26:41;;;;;;;7.47;5.07;;;11.40;95.30;;;;;;4952493;28;20031;-65
2022/01/01 03:29:07;;;;;;;6.65;4.72;;;11.30;95.00;;;;;;4951777;28;20030;-65
2022/01/01 03:31:32;;;;;;;6.82;4.47;;;11.30;95.30;;;;;;4955796;28;20077;-65
2022/01/01 03:33:58;;;;;;;8.02;4.20;;;11.30;95.20;;;;;;4954462;28;20523;-65
2022/01/01 03:36:27;;;;;;;7.47;4.53;;;11.30;95.50;;;;;;4952829;28;20104;-65
2022/01/01 03:38:53;;;;;;;7.28;5.00;;;11.30;95.00;;;;;;4953333;28;20401;-65
2022/01/01 03:41:19;;;;;;;7.28;4.57;;;11.10;94.80;;;;;;4950459;28;20058;-65
2022/01/01 03:43:45;;;;;;;7.85;4.20;;;11.20;95.40;;;;;;4956111;28;20083;-65
2022/01/01 03:46:11;;;;;;;4.97;4.13;;;11.20;95.20;;;;;;4952127;28;20441;-65
2022/01/01 03:48:37;;;;;;;6.32;4.70;;;11.20;95.50;;;;;;4953925;28;20109;-65
2022/01/01 03:51:03;;;;;;;6.75;4.07;;;11.20;95.00;;;;;;4949417;28;20023;-65
2022/01/01 03:53:28;;;;;;;5.60;4.10;;;11.20;95.20;;;;;;4964710;28;20393;-66
2022/01/01 03:55:54;;;;;;;5.80;4.45;;;11.20;95.30;;;;;;4955430;28;20110;-65
2022/01/01 03:58:20;;;;;;;7.57;4.18;;;11.20;95.40;;;;;;4953817;28;20172;-65
2022/01/01 04:00:46;;;;;;;5.78;3.95;;;11.20;95.20;;;;;;4953706;28;20123;-65
2022/01/01 04:03:14;;;;;;;5.00;3.85;;;11.20;95.10;;;;;;4953734;28;20523;-65
2022/01/01 04:05:40;;;;;;;5.38;3.60;;;11.30;95.20;;;;;;4951148;28;20043;-65
2022/01/01 04:08:07;;;;;;;5.57;4.00;;;11.40;95.40;;;;;;4952724;28;20031;-65
2022/01/01 04:10:34;;;;;;;5.25;4.22;;;11.30;95.10;;;;;;4955039;28;20093;-65
2022/01/01 04:13:01;;;;;;;4.68;3.80;;;11.40;95.00;;;;;;4952808;28;20043;-66
2022/01/01 04:15:28;;;;;;;5.03;3.72;;;11.30;94.90;;;;;;4953863;28;20073;-65
2022/01/01 04:18:00;;;;;;;6.28;3.78;;;11.30;95.00;;;;;;4953125;28;20031;-65
2022/01/01 04:20:26;;;;;;;5.57;3.90;;;11.30;94.70;;;;;;4952085;28;20042;-65
2022/01/01 04:22:53;;;;;;;4.93;3.80;;;11.30;94.80;;;;;;4961783;28;20034;-65
2022/01/01 04:25:20;;;;;;;7.13;4.25;;;11.20;94.50;;;;;;4953661;28;20031;-65
2022/01/01 04:27:47;;;;;;;4.80;3.92;;;11.20;94.70;;;;;;4953524;28;20057;-65
2022/01/01 04:30:12;;;;;;;6.25;4.18;;;11.20;94.50;;;;;;4953501;28;20407;-65
2022/01/01 04:32:38;;;;;;;6.57;4.50;;;11.10;94.40;;;;;;4950661;28;20515;-66
2022/01/01 04:35:04;;;;;;;5.97;4.18;;;11.00;94.40;;;;;;4952809;28;20515;-65
2022/01/01 04:37:30;;;;;;;7.45;4.72;;;10.90;94.60;;;;;;4954642;28;20066;-65
2022/01/01 04:39:59;;;;;;;5.75;3.60;;;10.90;94.70;;;;;;4953414;28;20429;-65
2022/01/01 04:42:25;;;;;;;5.93;4.05;;;11.00;94.90;;;;;;4953416;28;20106;-65
2022/01/01 04:44:51;;;;;;;4.72;3.90;;;11.00;95.10;;;;;;4952708;28;20566;-65
2022/01/01 04:47:17;;;;;;;5.10;4.15;;;11.00;94.90;;;;;;4949719;28;20118;-65
2022/01/01 04:49:42;;;;;;;5.65;4.15;;;10.90;94.30;;;;;;4955305;28;20024;-65
2022/01/01 04:52:08;;;;;;;5.20;4.43;;;10.90;94.50;;;;;;4953377;28;20070;-65
2022/01/01 04:54:38;;;;;;;6.88;4.00;;;10.90;94.50;;;;;;4953283;28;20028;-65
2022/01/01 04:57:04;;;;;;;4.82;4.07;;;10.80;94.70;;;;;;4953220;28;20357;-65
2022/01/01 04:59:30;;;;;;;5.35;4.32;;;10.80;94.60;;;;;;4949527;28;20110;-65
2022/01/01 05:01:56;;;;;;;4.72;3.80;;;10.70;94.60;;;;;;4954092;28;20382;-65
2022/01/01 05:04:21;;;;;;;5.55;4.35;;;10.80;94.80;;;;;;4953444;28;20042;-65
2022/01/01 05:06:49;;;;;;;6.70;4.32;;;10.70;94.50;;;;;;4951813;28;20031;-65
2022/01/01 05:09:16;;;;;;;6.88;4.50;;;10.70;94.70;;;;;;4953104;28;20549;-65
2022/01/01 05:11:43;;;;;;;5.95;4.30;;;10.70;94.50;;;;;;4950652;28;20035;-65
2022/01/01 05:14:08;;;;;;;7.63;4.53;;;10.60;94.40;;;;;;4951536;28;20073;-65
2022/01/01 05:16:34;;;;;;;6.22;4.10;;;10.60;94.40;;;;;;4954344;28;20443;-66
2022/01/01 05:19:00;;;;;;;5.68;4.22;;;10.60;94.60;;;;;;4954646;28;20024;-65
2022/01/01 05:21:30;;;;;;;5.38;4.15;;;10.50;94.60;;;;;;4960334;28;20032;-65
2022/01/01 05:23:56;;;;;;;6.00;4.20;;;10.50;94.60;;;;;;4954047;28;20610;-65
2022/01/01 05:26:22;;;;;;;6.22;4.03;;;10.60;94.60;;;;;;4952375;28;20114;-65
2022/01/01 05:28:49;;;;;;;5.30;4.07;;;10.40;94.20;;;;;;4958209;28;20038;-65
2022/01/01 05:31:19;;;;;;;6.35;4.18;;;10.40;94.70;;;;;;4955690;28;20495;-65
2022/01/01 05:33:49;;;;;;;6.35;4.03;;;10.40;94.40;;;;;;4956033;28;20072;-65
2022/01/01 05:36:15;;;;;;;5.60;4.20;;;10.40;94.60;;;;;;4956031;28;20035;-65
2022/01/01 05:38:41;;;;;;;5.47;4.20;;;10.30;94.40;;;;;;4953868;28;20044;-65
2022/01/01 05:41:07;;;;;;;5.47;4.35;;;10.30;94.50;;;;;;4954794;28;20034;-65
2022/01/01 05:43:33;;;;;;;4.05;3.47;;;10.30;94.60;;;;;;4988700;28;20031;-65
2022/01/01 05:45:59;;;;;;;6.18;4.38;;;10.30;94.70;;;;;;4955567;28;20557;-65
2022/01/01 05:48:25;;;;;;;7.15;4.53;;;10.20;94.30;;;;;;4955876;28;20500;-65
2022/01/01 05:50:51;;;;;;;5.45;3.97;;;10.20;94.50;;;;;;4955046;28;20038;-65
2022/01/01 05:53:17;;;;;;;5.78;4.43;;;10.20;94.80;;;;;;4952555;28;20082;-65
2022/01/01 05:55:43;;;;;;;4.65;4.15;;;10.20;94.70;;;;;;4957877;28;20023;-65
2022/01/01 05:58:08;;;;;;;7.05;4.60;;;10.20;94.60;;;;;;4955943;28;20030;-65
2022/01/01 06:00:35;;;;;;;5.65;4.60;;;10.30;94.60;;;;;;4955295;28;20113;-65
2022/01/01 06:03:00;;;;;;;4.60;4.10;;;10.20;94.70;;;;;;4955763;28;20487;-66
2022/01/01 06:05:29;;;;;;;6.45;4.28;;;10.20;94.50;;;;;;4951604;28;20042;-65
2022/01/01 06:07:56;;;;;;;6.07;4.40;;;10.20;94.30;;;;;;4965067;28;20031;-65
2022/01/01 06:10:23;;;;;;;5.15;3.72;;;10.20;94.60;;;;;;4955915;28;20054;-66
2022/01/01 06:12:49;;;;;;;4.55;3.70;;;10.30;94.70;;;;;;4955718;28;20670;-65
2022/01/01 06:15:15;;;;;;;5.22;3.95;;;10.30;95.10;;;;;;4955184;28;20030;-65
2022/01/01 06:17:41;;;;;;;5.25;3.85;;;10.30;94.70;;;;;;4953278;28;20027;-65
2022/01/01 06:20:07;;;;;;;5.50;3.75;;;10.40;94.70;;;;;;4963414;28;20518;-65
2022/01/01 06:22:32;;;;;;;5.60;4.05;;;10.40;94.60;;;;;;4956574;28;20031;-65
2022/01/01 06:24:58;;;;;;;5.35;4.20;;;10.40;94.50;;;;;;4955404;28;20034;-65
2022/01/01 06:27:24;;;;;;;5.45;4.13;;;10.40;94.60;;;;;;4955477;28;20440;-65
2022/01/01 06:29:50;;;;;;;5.80;4.20;;;10.40;94.40;;;;;;4953815;28;20106;-65
2022/01/01 06:32:16;;;;;;;5.57;3.97;;;10.30;94.20;;;;;;4952457;28;20023;-65
2022/01/01 06:34:42;;;;;;;6.57;4.53;;;10.40;94.50;;;;;;4956810;28;20058;-65
2022/01/01 06:37:07;;;;;;;6.22;4.10;;;10.30;94.20;;;;;;4954953;28;20020;-65
2022/01/01 06:39:33;;;;;;;6.18;4.05;;;10.40;94.90;;;;;;4955304;28;20466;-65
2022/01/01 06:41:59;;;;;;;5.35;3.78;;;10.40;94.50;;;;;;4955223;28;20052;-65
2022/01/01 06:44:25;;;;;;;5.82;3.75;;;10.40;94.50;;;;;;4950846;28;20385;-65
2022/01/01 06:46:51;;;;;;;5.18;3.83;;;10.50;94.30;;;;;;4957044;28;20361;-65
2022/01/01 06:49:17;;;;;;;5.32;3.78;;;10.40;94.20;;;;;;4952244;28;20043;-65
2022/01/01 06:51:43;;;;;;;5.50;4.18;;;10.40;94.00;;;;;;4954835;28;20023;-65
2022/01/01 06:54:08;;;;;;;5.82;4.22;;;10.30;94.10;;;;;;4954769;28;20023;-65
2022/01/01 06:56:34;;;;;;;4.63;3.88;;;10.40;94.40;;;;;;4951628;28;20031;-65
2022/01/01 06:59:00;;;;;;;5.10;3.75;;;10.40;94.80;;;;;;4955013;28;20027;-65
2022/01/01 07:01:25;;;;;;;5.10;3.92;;;10.40;94.20;;;;;;4955455;28;20069;-64
2022/01/01 07:03:51;;;;;;;4.32;3.90;;;10.40;94.20;;;;;;4954858;28;20031;-65
2022/01/01 07:06:17;;;;;;;3.85;3.45;;;10.40;94.20;;;;;;4954586;28;20031;-64
2022/01/01 07:08:42;;;;;;;4.68;3.80;;;10.40;94.10;;;;;;4951471;28;20092;-64
2022/01/01 07:11:08;;;;;;;6.57;3.75;;;10.40;94.00;;;;;;4953107;28;20393;-64
2022/01/01 07:13:34;;;;;;;4.75;3.95;;;10.30;94.10;;;;;;4955741;28;20111;-64
2022/01/01 07:15:59;;;;;;;5.38;3.50;;;10.40;94.00;;;;;;4953440;28;20051;-64
2022/01/01 07:18:25;;;;;;;5.80;4.00;;;10.30;94.00;;;;;;4954783;28;20027;-64
2022/01/01 07:20:51;;;;;;;6.72;3.95;;;10.30;94.10;;;;;;4962556;28;20471;-65
2022/01/01 07:23:17;;;;;;;5.05;3.95;;;10.10;93.90;;;;;;4951253;28;20105;-65
2022/01/01 07:25:42;;;;;;;4.65;3.95;;;10.20;93.90;;;;;;4956478;28;20031;-65
2022/01/01 07:28:10;;;;;;;4.43;3.95;;;10.20;94.00;;;;;;4954247;28;20098;-65
2022/01/01 07:30:35;;;;;;;4.05;3.55;;;10.20;94.00;;;;;;4954341;28;20030;-65
2022/01/01 07:33:01;;;;;;;6.38;3.80;;;10.20;94.00;;;;;;4954369;28;20026;-65
2022/01/01 07:35:27;;;;;;;5.03;3.88;;;10.20;94.00;;;;;;4950280;28;20054;-65
2022/01/01 07:37:53;;;;;;;5.90;4.30;;;10.10;93.90;;;;;;4954834;28;20061;-65
2022/01/01 07:40:19;;;;;;;4.90;3.83;;;10.10;94.00;;;;;;4954249;28;20081;-65
2022/01/01 07:42:46;;;;;;;6.18;3.83;;;10.20;94.10;;;;;;4953664;28;20514;-65
2022/01/01 07:45:12;;;;;;;6.15;3.92;;;10.20;94.10;;;;;;4954310;28;20015;-64
2022/01/01 07:47:38;;;;;;;6.22;3.80;;;10.10;93.80;;;;;;4951193;28;20061;-64
2022/01/01 07:50:06;;;;;;;4.53;3.55;;;10.10;93.90;;;;;;4953750;28;20441;-64
2022/01/01 07:52:32;;;;;;;4.63;3.60;;;10.10;94.10;;;;;;4953971;28;20035;-64
2022/01/01 07:54:57;;;;;;;5.75;3.95;;;10.10;93.80;;;;;;4952882;28;20019;-64
2022/01/01 07:57:23;;;;;;;4.18;3.33;;;10.10;93.90;;;;;;4953710;28;20137;-64
2022/01/01 07:59:49;;;;;;;5.28;4.30;;;10.10;94.10;;;;;;4951414;28;20033;-64
2022/01/01 08:02:14;;;;;;;5.15;3.70;;;10.10;93.80;;;;;;4950896;28;20042;-64
2022/01/01 08:04:40;;;;;;;5.28;4.25;;;10.10;93.90;;;;;;4955868;28;20031;-64
2022/01/01 08:07:06;;;;;;;4.75;4.03;;;10.10;93.90;;;;;;4953778;28;20023;-64
2022/01/01 08:09:32;;;;;;;6.15;4.30;;;10.10;93.70;;;;;;4953829;28;20556;-64
2022/01/01 08:11:57;;;;;;;5.63;3.90;;;10.20;94.00;;;;;;4953142;28;20047;-64
2022/01/01 08:14:23;;;;;;;5.43;3.80;;;10.30;94.00;;;;;;4943282;28;20069;-64
2022/01/01 08:16:59;;;;;;;5.95;3.83;;;10.10;93.70;;;;;;4955592;28;20064;-64
2022/01/01 08:19:27;;;;;;;4.80;3.67;;;10.20;93.70;;;;;;4957702;28;20027;-64
2022/01/01 08:21:54;;;;;;;5.82;4.05;;;10.20;93.90;;;;;;4957223;28;20078;-64
2022/01/01 08:24:19;;;;;;;6.18;3.75;;;10.20;93.80;;;;;;4953626;28;20027;-64
2022/01/01 08:26:45;;;;;;;6.10;3.80;;;10.30;94.10;;;;;;4951687;28;20027;-64
2022/01/01 08:29:11;;;;;;;5.18;3.78;;;10.40;94.20;;;;;;4950941;28;20050;-65
2022/01/01 08:31:37;;;;;;;6.13;3.38;;;10.60;94.10;;;;;;4953403;28;20150;-64
2022/01/01 08:34:03;;;;;;;5.40;3.58;;;10.70;94.50;;;;;;4953556;28;20023;-64
2022/01/01 08:36:28;;;;;;;3.95;3.25;;;10.90;93.90;;;;;;4953573;28;20381;-64
2022/01/01 08:38:54;;;;;;;5.43;3.55;;;10.90;93.70;;;;;;4953029;28;20447;-65
2022/01/01 08:41:20;;;;;;;4.72;3.90;;;11.10;93.80;;;;;;4949665;28;20039;-64
2022/01/01 08:43:45;;;;;;;4.50;4.05;;;11.30;93.50;;;;;;4955026;28;20039;-64
2022/01/01 08:46:33;;;;;;;4.50;3.72;;;11.40;92.90;;;;;;4949263;28;20066;-64
2022/01/01 08:49:00;;;;;;;4.13;3.38;;;11.40;92.70;;;;;;4950896;28;20066;-64
2022/01/01 08:51:28;;;;;;;4.40;3.35;;;11.50;92.60;;;;;;4951555;28;20454;-64
2022/01/01 08:53:53;;;;;;;4.65;3.58;;;11.50;92.20;;;;;;4952436;28;20109;-64
2022/01/01 08:56:19;;;;;;;5.38;3.30;;;11.60;92.70;;;;;;4949840;28;20070;-64
2022/01/01 08:58:46;;;;;;;4.25;3.35;;;11.60;92.30;;;;;;4956697;28;20038;-64
2022/01/01 09:01:12;;;;;;;3.88;3.42;;;11.60;92.30;;;;;;4956574;28;20030;-64
2022/01/01 09:03:38;;;;;;;4.85;3.40;;;11.70;92.10;;;;;;4956421;28;20114;-65
2022/01/01 09:06:05;;;;;;;4.28;3.75;;;11.60;91.80;;;;;;4956238;28;20106;-64
2022/01/01 09:08:32;;;;;;;5.00;3.75;;;11.50;91.30;;;;;;4952589;28;20030;-64
2022/01/01 09:10:58;;;;;;;4.97;3.83;;;11.40;91.70;;;;;;4957299;28;20412;-66
2022/01/01 09:13:24;;;;;;;5.85;3.88;;;11.40;91.90;;;;;;4956535;28;20035;-64
2022/01/01 09:15:49;;;;;;;5.15;4.20;;;11.50;91.70;;;;;;4956006;28;20093;-64
2022/01/01 09:18:15;;;;;;;5.53;4.20;;;11.50;92.10;;;;;;4956260;28;20031;-66
2022/01/01 09:20:41;;;;;;;4.90;4.30;;;11.80;92.10;;;;;;4962652;28;20027;-65
2022/01/01 09:23:06;;;;;;;6.22;3.90;;;12.10;91.90;;;;;;4954894;28;20035;-65
2022/01/01 09:25:33;;;;;;;4.47;3.58;;;12.40;91.00;;;;;;4957792;28;20479;-66
2022/01/01 09:27:59;;;;;;;4.88;3.55;;;12.60;91.40;;;;;;4955004;28;20024;-64
2022/01/01 09:30:24;;;;;;;4.47;3.40;;;12.90;91.00;;;;;;4956027;28;20034;-65
2022/01/01 09:32:51;;;;;;;4.18;3.55;;;13.20;91.30;;;;;;4954737;28;20402;-64
2022/01/01 09:35:17;;;;;;;6.05;3.97;;;13.30;89.60;;;;;;4952380;28;20031;-66
2022/01/01 09:37:43;;;;;;;4.72;3.95;;;13.30;89.00;;;;;;4957330;28;20629;-65
2022/01/01 09:40:09;;;;;;;4.43;3.25;;;13.10;88.10;;;;;;4955774;28;20034;-66
2022/01/01 09:42:35;;;;;;;5.65;3.53;;;13.10;89.50;;;;;;4955830;28;20058;-64
2022/01/01 09:45:04;;;;;;;5.63;3.90;;;13.40;90.10;;;;;;4955691;28;20023;-65
2022/01/01 09:47:30;;;;;;;5.13;3.80;;;13.70;90.00;;;;;;4951911;28;20089;-65
2022/01/01 09:49:56;;;;;;;6.72;3.90;;;13.90;87.60;;;;;;4957390;28;20074;-64
2022/01/01 09:52:22;;;;;;;4.90;3.53;;;13.90;87.00;;;;;;4955301;28;20019;-64
2022/01/01 09:54:48;;;;;;;5.65;3.63;;;14.10;87.70;;;;;;4955561;28;20034;-64
2022/01/01 09:57:13;;;;;;;4.05;3.60;;;14.00;85.90;;;;;;4955575;28;20035;-64
2022/01/01 09:59:39;;;;;;;4.80;3.83;;;13.90;87.40;;;;;;4953001;28;20031;-64
2022/01/01 10:02:06;;;;;;;5.07;3.42;;;14.20;87.20;;;;;;4955019;28;20154;-64
2022/01/01 10:04:52;;;;;;;3.65;3.08;;;14.30;85.40;;;;;;4956364;28;20450;-64
2022/01/01 10:07:26;;;;;;;4.13;3.50;;;14.10;85.40;;;;;;4949426;28;20120;-64
2022/01/01 10:09:52;;;;;;;4.40;3.63;;;14.20;87.30;;;;;;4948934;28;20110;-64
2022/01/01 10:12:18;;;;;;;3.50;2.92;;;14.50;86.30;;;;;;4950141;28;20555;-64
2022/01/01 10:14:46;;;;;;;4.55;2.95;;;14.70;85.90;;;;;;4953406;28;20058;-64
2022/01/01 10:17:20;;;;;;;6.85;3.85;;;14.90;85.50;;;;;;4953035;28;20032;-64
2022/01/01 10:19:49;;;;;;;3.72;3.08;;;14.80;83.60;;;;;;4964365;28;20026;-64
2022/01/01 10:22:20;;;;;;;4.43;3.20;;;14.90;84.60;;;;;;4955878;28;20415;-64
2022/01/01 10:27:45;;;;;;;3.78;3.35;;;15.50;81.30;;;;;;4955388;28;20530;-64
2022/01/01 10:30:21;;;;;;;5.13;3.42;;;15.70;82.70;;;;;;4955086;28;20022;-64
2022/01/01 10:33:03;;;;;;;4.45;3.40;;;15.70;80.70;;;;;;4953616;28;20038;-64
2022/01/01 10:35:35;;;;;;;5.20;2.75;;;15.80;83.10;;;;;;4935676;28;20051;-64
2022/01/01 10:38:03;;;;;;;4.88;3.70;;;16.10;81.40;;;;;;4955442;28;20027;-65
2022/01/01 10:40:29;;;;;;;4.85;3.35;;;16.10;80.30;;;;;;4955682;28;20023;-65
2022/01/01 10:42:55;;;;;;;4.03;3.00;;;16.20;79.60;;;;;;4954961;28;20035;-65
2022/01/01 10:45:41;;;;;;;3.80;3.03;;;16.20;79.10;;;;;;4953738;28;20666;-66
2022/01/01 10:48:22;;;;;;;5.15;3.30;;;16.40;80.60;;;;;;4954697;28;20042;-64
2022/01/01 10:50:50;;;;;;;4.25;3.17;;;16.60;80.10;;;;;;4951478;28;20450;-65
2022/01/01 10:53:22;;;;;;;4.82;3.50;;;16.80;78.40;;;;;;4951998;28;20481;-65
2022/01/01 10:55:51;;;;;;;4.82;3.40;;;16.90;77.30;;;;;;4956463;28;20031;-65
2022/01/01 10:58:22;;;;;;;3.92;3.13;;;17.00;77.10;;;;;;4954703;28;20027;-65
2022/01/01 11:00:49;;;;;;;4.30;3.03;;;17.20;77.80;;;;;;4953639;28;20125;-65
2022/01/01 11:03:17;;;;;;;3.75;2.90;;;17.50;77.20;;;;;;4954715;28;20507;-65
2022/01/01 11:05:44;;;;;;;4.15;3.03;;;17.70;76.70;;;;;;4950374;28;20114;-65
2022/01/01 11:08:11;;;;;;;4.70;3.75;;;18.00;79.40;;;;;;4953153;28;20377;-65
2022/01/01 11:10:38;;;;;;;4.55;3.30;;;18.30;75.80;;;;;;4956450;28;20043;-65
2022/01/01 11:13:05;;;;;;;4.15;3.28;;;17.90;73.00;;;;;;4954663;28;20027;-65
2022/01/01 11:15:31;;;;;;;4.82;3.17;;;18.00;75.80;;;;;;4954346;28;20027;-65
2022/01/01 11:17:58;;;;;;;4.10;3.17;;;18.00;74.70;;;;;;4954450;28;20027;-65
2022/01/01 11:20:26;;;;;;;4.43;3.25;;;18.20;73.30;;;;;;4958863;28;20031;-65
2022/01/01 11:22:52;;;;;;;5.00;3.35;;;18.10;72.80;;;;;;4955171;28;20035;-65
2022/01/01 11:25:19;;;;;;;5.60;3.00;;;18.10;71.90;;;;;;4954066;28;20403;-65
2022/01/01 11:27:46;;;;;;;4.78;3.17;;;18.40;74.80;;;;;;4954291;28;20106;-65
2022/01/01 11:30:13;;;;;;;5.47;3.13;;;18.80;74.30;;;;;;4954220;28;20027;-65
2022/01/01 11:32:44;;;;;;;4.30;3.10;;;18.80;72.10;;;;;;4951893;28;20019;-65
2022/01/01 11:35:32;;;;;;;4.15;2.90;;;18.60;71.30;;;;;;4951082;28;20514;-65
2022/01/01 11:38:12;;;;;;;4.75;3.08;;;18.60;73.20;;;;;;4963761;28;20058;-65
2022/01/01 11:40:58;;;;;;;3.30;2.70;;;18.60;72.30;;;;;;4954498;28;20038;-65
2022/01/01 11:43:40;;;;;;;4.47;3.03;;;18.80;73.40;;;;;;4954459;28;20085;-65
2022/01/01 11:46:18;;;;;;;4.82;2.72;;;18.90;71.80;;;;;;4954296;28;20384;-65
2022/01/01 11:48:52;;;;;;;5.10;2.65;;;19.00;72.10;;;;;;4953618;28;20500;-65
2022/01/01 11:51:46;;;;;;;4.57;2.83;;;19.30;71.10;;;;;;4946512;28;20053;-65
2022/01/01 11:54:14;;;;;;;4.30;2.50;;;19.20;71.00;;;;;;4954069;28;20033;-65
2022/01/01 11:56:46;;;;;;;5.60;3.00;;;19.40;72.40;;;;;;4937926;28;20034;-65
2022/01/01 11:59:31;;;;;;;4.15;2.75;;;19.60;69.80;;;;;;4951601;28;20031;-65
2022/01/01 12:02:00;;;;;;;6.03;3.35;;;19.10;68.20;;;;;;4963360;28;20032;-65
2022/01/01 12:04:41;;;;;;;4.07;2.35;;;18.30;68.50;;;;;;4952372;28;20050;-65
2022/01/01 12:07:12;;;;;;;4.63;2.47;;;17.70;71.70;;;;;;4951669;28;20488;-65
2022/01/01 12:10:08;;;;;;;3.78;2.40;;;17.60;72.90;;;;;;4954048;28;20113;-66
2022/01/01 12:12:51;;;;;;;5.20;3.25;;;17.60;74.40;;;;;;4953848;28;20040;-65
2022/01/01 12:15:23;;;;;;;;;;;17.80;74.20;;;;;;4954015;28;20041;-65
2022/01/01 12:18:01;;;;;;;3.38;2.22;;;17.90;74.40;;;;;;4951979;28;20009;-65
2022/01/01 12:20:51;;;;;;;5.20;2.70;;;17.50;72.90;;;;;;4952093;28;20032;-65
2022/01/01 12:23:25;;;;;;;4.03;2.60;;;17.30;73.10;;;;;;4963365;28;20050;-66
2022/01/01 12:25:53;;;;;;;4.00;2.55;;;17.30;74.90;;;;;;4954695;28;20023;-65
2022/01/01 12:28:26;;;;;;;5.25;2.58;;;17.50;74.20;;;;;;4953507;28;20111;-65
2022/01/01 12:30:53;;;;;;;5.20;2.88;;;17.40;73.90;;;;;;4953653;28;20165;-65
2022/01/01 12:33:22;;;;;;;4.13;2.78;;;17.20;73.40;;;;;;4952255;28;20042;-65
2022/01/01 12:35:53;;;;;;;5.63;2.55;;;17.00;74.60;;;;;;4951271;28;20031;-65
2022/01/01 12:38:23;;;;;;;4.43;3.13;;;16.80;74.70;;;;;;4935191;28;20027;-65
2022/01/01 12:41:08;;;;;;;4.57;2.60;;;16.70;75.00;;;;;;4954681;28;20388;-65
2022/01/01 12:43:42;;;;;;;4.38;2.88;;;16.50;76.40;;;;;;4954750;28;20515;-65
2022/01/01 12:46:08;;;;;;;4.55;2.72;;;16.60;77.40;;;;;;4952944;28;20034;-65
2022/01/01 12:48:34;;;;;;;6.97;2.97;;;16.60;77.80;;;;;;4953496;28;20028;-65
2022/01/01 12:51:04;;;;;;;4.35;2.60;;;17.30;77.10;;;;;;4953161;28;20022;-66
2022/01/01 12:53:33;;;;;;;5.00;2.55;;;18.00;76.20;;;;;;4976390;28;20102;-66